createdAt,value
2018-09-02T00:01:27.252Z,96210.05
2018-09-02T00:03:56.398Z,96208.13
2018-09-02T00:06:25.797Z,96210.80
2018-09-02T00:08:54.955Z,96207.18
2018-09-02T00:11:24.101Z,96205.25
2018-09-02T00:13:53.243Z,96209.73
2018-09-02T00:16:22.409Z,96201.38
2018-09-02T00:18:51.569Z,96199.52
2018-09-02T00:21:20.741Z,96191.70
2018-09-02T00:23:49.916Z,96188.73
2018-09-02T00:26:19.048Z,96187.67
2018-09-02T00:28:48.272Z,96183.66
2018-09-02T00:31:17.413Z,96182.87
2018-09-02T00:33:46.630Z,96188.01
2018-09-02T00:36:15.789Z,96187.48
2018-09-02T00:38:44.937Z,96185.09
2018-09-02T00:41:14.097Z,96177.05
2018-09-02T00:43:43.240Z,96181.08
2018-09-02T00:46:12.449Z,96175.09
2018-09-02T00:48:41.599Z,96174.01
2018-09-02T00:51:10.769Z,96175.87
2018-09-02T00:53:39.945Z,96176.17
2018-09-02T00:56:09.108Z,96175.94
2018-09-02T00:58:38.286Z,96169.98
2018-09-02T01:01:07.457Z,96175.97
2018-09-02T01:03:36.623Z,96172.30
2018-09-02T01:06:06.004Z,96170.67
2018-09-02T01:08:35.245Z,96170.59
2018-09-02T01:11:04.433Z,96181.03
2018-09-02T01:13:33.570Z,96171.16
2018-09-02T01:16:02.705Z,96174.92
2018-09-02T01:18:31.837Z,96173.05
2018-09-02T01:21:00.980Z,96172.27
2018-09-02T01:23:30.101Z,96170.67
2018-09-02T01:25:59.301Z,96168.73
2018-09-02T01:28:28.385Z,96165.27
2018-09-02T01:30:57.517Z,96171.61
2018-09-02T01:33:26.638Z,96164.61
2018-09-02T01:35:55.828Z,96162.22
2018-09-02T01:38:24.973Z,96155.16
2018-09-02T01:40:54.109Z,96164.98
2018-09-02T01:43:23.315Z,96165.06
2018-09-02T01:45:52.437Z,96159.14
2018-09-02T01:48:21.581Z,96163.09
2018-09-02T01:50:50.725Z,96157.47
2018-09-02T01:53:19.876Z,96155.31
2018-09-02T01:55:49.010Z,96151.03
2018-09-02T01:58:18.182Z,96151.55
2018-09-02T02:00:47.402Z,96145.19
2018-09-02T02:03:16.536Z,96148.12
2018-09-02T02:05:45.677Z,96140.91
2018-09-02T02:08:14.833Z,96139.59
2018-09-02T02:10:43.961Z,96128.87
2018-09-02T02:13:13.109Z,96118.94
2018-09-02T02:15:42.240Z,96119.50
2018-09-02T02:18:11.398Z,96115.52
2018-09-02T02:20:40.528Z,96119.92
2018-09-02T02:23:09.672Z,96117.21
2018-09-02T02:25:38.814Z,96112.60
2018-09-02T02:28:08.029Z,96111.27
2018-09-02T02:30:37.182Z,96114.89
2018-09-02T02:33:06.333Z,96112.77
2018-09-02T02:35:35.528Z,96117.05
2018-09-02T02:38:04.684Z,96113.16
2018-09-02T02:40:33.812Z,96120.12
2018-09-02T02:43:02.958Z,96122.97
2018-09-02T02:45:32.102Z,96117.60
2018-09-02T02:48:08.014Z,96119.50
2018-09-02T02:50:37.153Z,96116.06
2018-09-02T02:53:06.550Z,96117.63
2018-09-02T02:55:36.214Z,96116.23
2018-09-02T02:58:05.336Z,96114.92
2018-09-02T03:00:34.489Z,96109.59
2018-09-02T03:03:03.670Z,96104.00
2018-09-02T03:05:32.866Z,96106.39
2018-09-02T03:08:02.013Z,96102.95
2018-09-02T03:10:31.129Z,96098.66
2018-09-02T03:13:00.273Z,96098.37
2018-09-02T03:15:29.413Z,96104.52
2018-09-02T03:17:58.615Z,96099.98
2018-09-02T03:20:27.738Z,96101.55
2018-09-02T03:22:56.940Z,96098.34
2018-09-02T03:25:26.073Z,96103.47
2018-09-02T03:27:55.229Z,96097.06
2018-09-02T03:30:24.398Z,96090.91
2018-09-02T03:32:53.541Z,96089.83
2018-09-02T03:35:22.728Z,96078.58
2018-09-02T03:37:51.878Z,96083.16
2018-09-02T03:40:21.052Z,96079.40
2018-09-02T03:42:50.194Z,96074.59
2018-09-02T03:45:19.429Z,96069.78
2018-09-02T03:47:48.586Z,96063.28
2018-09-02T03:50:17.753Z,96060.66
2018-09-02T03:52:46.877Z,96056.62
2018-09-02T03:55:16.022Z,96056.63
2018-09-02T03:57:45.166Z,96049.93
2018-09-02T04:00:14.303Z,96048.56
2018-09-02T04:02:43.460Z,96055.55
2018-09-02T04:05:12.595Z,96058.79
2018-09-02T04:07:41.754Z,96056.92
2018-09-02T04:10:10.908Z,96056.62
2018-09-02T04:12:40.057Z,96057.18
2018-09-02T04:15:09.225Z,96056.08
2018-09-02T04:17:38.374Z,96050.95
2018-09-02T04:20:08.214Z,96058.00
2018-09-02T04:22:44.170Z,96054.53
2018-09-02T04:25:13.305Z,96055.30
2018-09-02T04:27:42.461Z,96057.69
2018-09-02T04:30:11.665Z,96061.76
2018-09-02T04:32:40.836Z,96062.31
2018-09-02T04:35:10.010Z,96063.13
2018-09-02T04:37:39.153Z,96053.45
2018-09-02T04:40:08.329Z,96050.82
2018-09-02T04:42:37.478Z,96054.84
2018-09-02T04:45:06.682Z,96052.41
2018-09-02T04:47:35.914Z,96054.50
2018-09-02T04:50:16.405Z,96053.69
2018-09-02T04:52:45.576Z,96054.97
2018-09-02T04:55:14.729Z,96055.50
2018-09-02T04:57:44.665Z,96054.10
2018-09-02T05:00:13.902Z,96053.05
2018-09-02T05:02:43.006Z,96051.16
2018-09-02T05:05:15.017Z,96049.79
2018-09-02T05:07:44.149Z,96054.13
2018-09-02T05:10:13.310Z,96052.03
2018-09-02T05:12:42.457Z,96051.77
2018-09-02T05:15:11.841Z,96062.52
2018-09-02T05:17:40.973Z,96059.52
2018-09-02T05:20:10.174Z,96057.97
2018-09-02T05:22:39.298Z,96059.44
2018-09-02T05:25:08.434Z,96055.44
2018-09-02T05:27:37.580Z,96054.50
2018-09-02T05:30:07.165Z,96041.44
2018-09-02T05:32:36.309Z,96049.42
2018-09-02T05:35:06.233Z,96041.91
2018-09-02T05:37:35.401Z,96037.36
2018-09-02T05:40:04.634Z,96037.38
2018-09-02T05:42:33.777Z,96038.20
2018-09-02T05:45:02.927Z,96031.52
2018-09-02T05:47:32.102Z,96022.05
2018-09-02T05:50:01.279Z,96034.98
2018-09-02T05:52:30.421Z,96035.23
2018-09-02T05:54:59.545Z,96043.34
2018-09-02T05:57:28.842Z,96050.12
2018-09-02T05:59:57.918Z,96048.04
2018-09-02T06:02:27.069Z,96055.05
2018-09-02T06:04:56.217Z,96051.75
2018-09-02T06:07:25.353Z,96063.56
2018-09-02T06:09:54.509Z,96061.75
2018-09-02T06:12:23.725Z,96065.22
2018-09-02T06:14:52.927Z,96061.91
2018-09-02T06:17:22.107Z,96065.12
2018-09-02T06:19:51.285Z,96066.56
2018-09-02T06:22:20.414Z,96063.89
2018-09-02T06:24:49.582Z,96063.66
2018-09-02T06:27:18.732Z,96059.02
2018-09-02T06:29:47.885Z,96057.72
2018-09-02T06:32:17.045Z,96058.87
2018-09-02T06:34:46.213Z,96054.84
2018-09-02T06:37:15.359Z,96044.45
2018-09-02T06:39:44.538Z,96045.51
2018-09-02T06:42:13.693Z,96050.02
2018-09-02T06:44:42.890Z,96045.73
2018-09-02T06:47:12.105Z,96051.38
2018-09-02T06:49:41.254Z,96045.47
2018-09-02T06:52:10.399Z,96041.83
2018-09-02T06:54:39.554Z,96043.16
2018-09-02T06:57:08.771Z,96036.72
2018-09-02T06:59:37.893Z,96041.78
2018-09-02T07:02:07.034Z,96045.36
2018-09-02T07:04:36.179Z,96049.59
2018-09-02T07:07:05.485Z,96053.62
2018-09-02T07:09:34.615Z,96050.12
2018-09-02T07:12:03.754Z,96054.68
2018-09-02T07:14:32.914Z,96050.83
2018-09-02T07:17:02.192Z,96053.50
2018-09-02T07:19:31.352Z,96054.55
2018-09-02T07:22:00.481Z,96052.42
2018-09-02T07:24:29.650Z,96048.98
2018-09-02T07:26:58.840Z,96051.69
2018-09-02T07:29:27.977Z,96044.97
2018-09-02T07:31:57.126Z,96049.06
2018-09-02T07:34:26.240Z,96054.68
2018-09-02T07:36:55.387Z,96053.89
2018-09-02T07:39:24.546Z,96056.02
2018-09-02T07:41:53.727Z,96060.86
2018-09-02T07:44:22.845Z,96060.92
2018-09-02T07:46:52.097Z,96059.33
2018-09-02T07:49:21.221Z,96052.66
2018-09-02T07:51:50.360Z,96041.36
2018-09-02T07:54:19.560Z,96040.30
2018-09-02T07:56:48.647Z,96038.22
2018-09-02T07:59:17.813Z,96047.33
2018-09-02T08:01:46.957Z,96057.89
2018-09-02T08:04:16.081Z,96059.40
2018-09-02T08:06:45.252Z,96059.70
2018-09-02T08:09:14.394Z,96056.19
2018-09-02T08:11:43.545Z,96061.05
2018-09-02T08:14:12.664Z,96064.84
2018-09-02T08:16:41.837Z,96059.70
2018-09-02T08:19:10.970Z,96071.75
2018-09-02T08:21:40.134Z,96075.80
2018-09-02T08:24:09.277Z,96072.77
2018-09-02T08:26:38.554Z,96076.78
2018-09-02T08:29:07.662Z,96077.38
2018-09-02T08:31:36.834Z,96073.02
2018-09-02T08:34:06.093Z,96075.73
2018-09-02T08:36:35.249Z,96073.13
2018-09-02T08:39:05.991Z,96080.39
2018-09-02T08:41:35.143Z,96075.59
2018-09-02T08:44:04.317Z,96072.88
2018-09-02T08:46:34.093Z,96074.52
2018-09-02T08:49:03.261Z,96067.72
2018-09-02T08:51:32.449Z,96063.39
2018-09-02T08:54:01.599Z,96065.02
2018-09-02T08:56:30.724Z,96070.22
2018-09-02T08:58:59.873Z,96069.16
2018-09-02T09:01:29.019Z,96065.70
2018-09-02T09:03:58.132Z,96068.39
2018-09-02T09:06:27.257Z,96070.16
2018-09-02T09:08:56.766Z,96078.20
2018-09-02T09:11:25.828Z,96072.34
2018-09-02T09:13:55.447Z,96065.83
2018-09-02T09:16:24.616Z,96063.14
2018-09-02T09:18:54.160Z,96061.28
2018-09-02T09:21:23.279Z,96063.13
2018-09-02T09:23:52.462Z,96058.03
2018-09-02T09:26:21.646Z,96053.18
2018-09-02T09:28:50.821Z,96058.28
2018-09-02T09:31:20.002Z,96051.14
2018-09-02T09:33:49.174Z,96057.08
2018-09-02T09:36:18.456Z,96050.97
2018-09-02T09:38:47.621Z,96047.50
2018-09-02T09:41:16.849Z,96039.98
2018-09-02T09:43:46.022Z,96056.62
2018-09-02T09:46:15.196Z,96056.91
2018-09-02T09:48:44.434Z,96056.62
2018-09-02T09:51:13.578Z,96062.53
2018-09-02T09:53:43.017Z,96055.50
2018-09-02T09:56:12.170Z,96056.06
2018-09-02T09:58:41.368Z,96057.69
2018-09-02T10:01:10.526Z,96060.39
2018-09-02T10:03:39.749Z,96055.53
2018-09-02T10:06:08.862Z,96057.16
2018-09-02T10:08:38.050Z,96051.52
2018-09-02T10:11:07.170Z,96049.16
2018-09-02T10:13:36.293Z,96044.34
2018-09-02T10:16:05.453Z,96037.40
2018-09-02T10:18:34.575Z,96042.78
2018-09-02T10:21:03.717Z,96035.27
2018-09-02T10:23:32.837Z,96036.09
2018-09-02T10:26:01.985Z,96031.23
2018-09-02T10:28:31.113Z,96026.69
2018-09-02T10:31:00.270Z,96026.95
2018-09-02T10:33:29.463Z,96024.00
2018-09-02T10:35:59.514Z,96025.31
2018-09-02T10:38:28.630Z,96032.58
2018-09-02T10:40:57.823Z,96026.12
2018-09-02T10:43:26.912Z,96026.95
2018-09-02T10:45:56.061Z,96023.99
2018-09-02T10:48:25.338Z,96034.50
2018-09-02T10:50:54.501Z,96031.53
2018-09-02T10:53:23.849Z,96029.66
2018-09-02T10:55:53.021Z,96028.58
2018-09-02T10:58:22.173Z,96035.05
2018-09-02T11:00:51.345Z,96031.52
2018-09-02T11:03:20.516Z,96034.77
2018-09-02T11:05:49.681Z,96023.47
2018-09-02T11:08:18.841Z,96021.02
2018-09-02T11:10:48.028Z,96024.52
2018-09-02T11:13:17.262Z,96024.80
2018-09-02T11:15:46.335Z,96018.60
2018-09-02T11:18:15.498Z,96016.18
2018-09-02T11:20:44.637Z,96023.19
2018-09-02T11:23:13.807Z,96021.03
2018-09-02T11:25:42.953Z,96019.16
2018-09-02T11:28:12.121Z,96018.90
2018-09-02T11:30:41.253Z,96010.03
2018-09-02T11:33:10.397Z,96009.48
2018-09-02T11:35:39.525Z,96008.67
2018-09-02T11:38:08.673Z,96006.80
2018-09-02T11:40:37.781Z,96004.40
2018-09-02T11:43:07.151Z,96001.17
2018-09-02T11:45:36.382Z,95993.36
2018-09-02T11:48:05.538Z,95998.70
2018-09-02T11:50:34.657Z,95997.85
2018-09-02T11:53:03.854Z,96000.55
2018-09-02T11:55:34.115Z,96003.23
2018-09-02T11:58:03.234Z,96000.30
2018-09-02T12:00:32.409Z,96001.61
2018-09-02T12:03:01.590Z,96000.52
2018-09-02T12:05:30.758Z,95996.79
2018-09-02T12:08:00.235Z,95992.75
2018-09-02T12:10:29.385Z,95990.05
2018-09-02T12:12:58.613Z,95986.30
2018-09-02T12:15:27.777Z,95986.83
2018-09-02T12:17:56.925Z,95984.39
2018-09-02T12:20:26.074Z,95981.16
2018-09-02T12:22:55.229Z,95982.79
2018-09-02T12:25:24.368Z,95976.31
2018-09-02T12:27:53.564Z,95980.91
2018-09-02T12:30:22.681Z,95975.28
2018-09-02T12:32:51.907Z,95976.06
2018-09-02T12:35:21.029Z,95977.66
2018-09-02T12:37:50.177Z,95980.34
2018-09-02T12:40:19.394Z,95975.20
2018-09-02T12:42:48.539Z,95963.31
2018-09-02T12:45:17.697Z,95962.49
2018-09-02T12:47:46.936Z,95964.62
2018-09-02T12:50:16.034Z,95958.98
2018-09-02T12:52:45.182Z,95961.92
2018-09-02T12:55:14.360Z,95961.67
2018-09-02T12:57:43.576Z,95962.16
2018-09-02T13:00:12.749Z,95959.75
2018-09-02T13:02:41.912Z,95956.22
2018-09-02T13:05:11.072Z,95955.13
2018-09-02T13:07:40.200Z,95951.63
2018-09-02T13:10:09.464Z,95958.38
2018-09-02T13:12:38.621Z,95950.28
2018-09-02T13:15:07.798Z,95947.00
2018-09-02T13:17:37.032Z,95950.27
2018-09-02T13:20:06.406Z,95944.58
2018-09-02T13:22:35.541Z,95939.19
2018-09-02T13:25:05.005Z,95935.66
2018-09-02T13:27:34.129Z,95935.66
2018-09-02T13:30:03.347Z,95926.48
2018-09-02T13:32:32.479Z,95917.61
2018-09-02T13:35:01.633Z,95923.76
2018-09-02T13:37:30.893Z,95924.06
2018-09-02T13:40:00.048Z,95929.92
2018-09-02T13:42:29.188Z,95924.28
2018-09-02T13:44:58.357Z,95927.23
2018-09-02T13:47:27.544Z,95924.81
2018-09-02T13:49:57.014Z,95919.72
2018-09-02T13:52:26.379Z,95917.31
2018-09-02T13:54:55.552Z,95909.39
2018-09-02T13:57:24.742Z,95913.64
2018-09-02T13:59:53.902Z,95918.42
2018-09-02T14:02:23.078Z,95919.23
2018-09-02T14:04:52.234Z,95919.00
2018-09-02T14:07:21.401Z,95917.66
2018-09-02T14:09:50.645Z,95911.52
2018-09-02T14:12:19.782Z,95913.71
2018-09-02T14:14:49.626Z,95908.61
2018-09-02T14:17:18.842Z,95908.86
2018-09-02T14:19:48.049Z,95913.42
2018-09-02T14:22:17.130Z,95910.41
2018-09-02T14:24:46.274Z,95909.91
2018-09-02T14:27:15.430Z,95904.48
2018-09-02T14:29:44.589Z,95905.03
2018-09-02T14:32:13.777Z,95908.55
2018-09-02T14:34:42.925Z,95912.89
2018-09-02T14:37:12.122Z,95906.96
2018-09-02T14:39:41.254Z,95902.39
2018-09-02T14:42:10.469Z,95902.17
2018-09-02T14:44:39.605Z,95905.11
2018-09-02T14:47:08.767Z,95905.64
2018-09-02T14:49:37.936Z,95907.57
2018-09-02T14:52:07.321Z,95904.88
2018-09-02T14:54:36.597Z,95902.20
2018-09-02T14:57:05.783Z,95901.66
2018-09-02T14:59:34.929Z,95903.84
2018-09-02T15:02:04.097Z,95904.28
2018-09-02T15:04:33.293Z,95902.11
2018-09-02T15:07:02.429Z,95902.03
2018-09-02T15:09:31.589Z,95902.59
2018-09-02T15:12:00.733Z,95906.66
2018-09-02T15:14:29.965Z,95912.00
2018-09-02T15:16:59.133Z,95907.18
2018-09-02T15:19:28.274Z,95905.81
2018-09-02T15:21:57.425Z,95903.68
2018-09-02T15:24:26.553Z,95908.81
2018-09-02T15:26:55.721Z,95904.25
2018-09-02T15:29:24.908Z,95905.61
2018-09-02T15:31:54.057Z,95908.02
2018-09-02T15:34:23.213Z,95909.89
2018-09-02T15:36:52.384Z,95906.16
2018-09-02T15:39:21.532Z,95899.43
2018-09-02T15:41:50.665Z,95900.02
2018-09-02T15:44:19.821Z,95901.66
2018-09-02T15:46:48.959Z,95901.14
2018-09-02T15:49:18.257Z,95900.56
2018-09-02T15:51:47.364Z,95896.30
2018-09-02T15:54:16.509Z,95896.01
2018-09-02T15:56:45.660Z,95896.01
2018-09-02T15:59:14.812Z,95899.50
2018-09-02T16:01:43.974Z,95897.97
2018-09-02T16:04:13.104Z,95897.19
2018-09-02T16:06:42.258Z,95896.09
2018-09-02T16:09:11.582Z,95902.05
2018-09-02T16:11:40.710Z,95896.36
2018-09-02T16:14:10.365Z,95903.67
2018-09-02T16:16:39.886Z,95897.75
2018-09-02T16:19:09.046Z,95896.66
2018-09-02T16:21:38.339Z,95892.10
2018-09-02T16:24:07.523Z,95887.27
2018-09-02T16:26:36.657Z,95889.92
2018-09-02T16:29:05.873Z,95884.30
2018-09-02T16:31:35.078Z,95881.26
2018-09-02T16:34:04.225Z,95891.28
2018-09-02T16:36:33.353Z,95885.88
2018-09-02T16:39:02.562Z,95888.56
2018-09-02T16:41:31.794Z,95883.23
2018-09-02T16:44:00.843Z,95883.70
2018-09-02T16:46:30.008Z,95875.27
2018-09-02T16:48:59.173Z,95873.65
2018-09-02T16:51:28.374Z,95874.19
2018-09-02T16:53:57.525Z,95867.75
2018-09-02T16:56:26.694Z,95856.46
2018-09-02T16:58:56.048Z,95868.37
2018-09-02T17:01:25.240Z,95861.34
2018-09-02T17:03:57.539Z,95862.42
2018-09-02T17:06:26.701Z,95865.66
2018-09-02T17:08:55.939Z,95873.45
2018-09-02T17:11:25.105Z,95865.66
2018-09-02T17:13:54.332Z,95870.23
2018-09-02T17:16:23.505Z,95871.64
2018-09-02T17:18:55.890Z,95871.94
2018-09-02T17:21:25.077Z,95870.02
2018-09-02T17:23:54.305Z,95866.50
2018-09-02T17:26:23.503Z,95868.72
2018-09-02T17:28:52.686Z,95873.58
2018-09-02T17:31:21.881Z,95880.61
2018-09-02T17:33:51.072Z,95868.80
2018-09-02T17:36:20.264Z,95865.53
2018-09-02T17:38:49.423Z,95861.99
2018-09-02T17:41:18.606Z,95863.88
2018-09-02T17:43:47.793Z,95870.66
2018-09-02T17:46:19.462Z,95870.37
2018-09-02T17:48:49.928Z,95868.23
2018-09-02T17:51:19.940Z,95872.03
2018-09-02T17:53:49.102Z,95872.31
2018-09-02T17:56:18.237Z,95876.37
2018-09-02T17:58:47.656Z,95871.28
2018-09-02T18:01:16.798Z,95876.67
2018-09-02T18:03:45.952Z,95882.88
2018-09-02T18:06:15.169Z,95883.44
2018-09-02T18:08:44.324Z,95884.79
2018-09-02T18:11:13.466Z,95886.95
2018-09-02T18:13:42.628Z,95888.02
2018-09-02T18:16:11.850Z,95889.12
2018-09-02T18:18:41.150Z,95891.28
2018-09-02T18:21:10.330Z,95900.95
2018-09-02T18:23:39.527Z,95899.88
2018-09-02T18:26:08.974Z,95897.72
2018-09-02T18:28:40.893Z,95900.95
2018-09-02T18:31:10.175Z,95914.45
2018-09-02T18:33:39.475Z,95911.20
2018-09-02T18:36:08.726Z,95912.30
2018-09-02T18:38:38.003Z,95913.92
2018-09-02T18:41:07.145Z,95914.98
2018-09-02T18:43:36.562Z,95909.59
2018-09-02T18:46:06.021Z,95907.44
2018-09-02T18:48:35.234Z,95904.47
2018-09-02T18:51:04.469Z,95907.72
2018-09-02T18:53:33.820Z,95904.75
2018-09-02T18:56:03.096Z,95912.82
2018-09-02T18:58:32.349Z,95909.88
2018-09-02T19:01:01.603Z,95903.97
2018-09-02T19:03:30.801Z,95903.69
2018-09-02T19:06:00.065Z,95905.56
2018-09-02T19:08:29.285Z,95906.66
2018-09-02T19:10:58.521Z,95902.63
2018-09-02T19:13:27.854Z,95906.94
2018-09-02T19:15:57.335Z,95901.52
2018-09-02T19:18:26.614Z,95904.47
2018-09-02T19:20:55.805Z,95906.38
2018-09-02T19:23:25.071Z,95901.56
2018-09-02T19:25:54.416Z,95899.69
2018-09-02T19:28:23.697Z,95890.23
2018-09-02T19:30:52.907Z,95890.52
2018-09-02T19:33:22.105Z,95890.27
2018-09-02T19:35:51.377Z,95881.91
2018-09-02T19:38:20.609Z,95887.30
2018-09-02T19:40:49.897Z,95876.56
2018-09-02T19:43:19.796Z,95870.37
2018-09-02T19:45:49.132Z,95880.31
2018-09-02T19:48:18.449Z,95879.00
2018-09-02T19:50:47.634Z,95876.84
2018-09-02T19:53:16.837Z,95872.03
2018-09-02T19:55:46.042Z,95881.98
2018-09-02T19:58:15.176Z,95879.81
2018-09-02T20:00:44.434Z,95879.81
2018-09-02T20:03:13.625Z,95869.02
2018-09-02T20:05:42.881Z,95870.40
2018-09-02T20:08:12.025Z,95866.64
2018-09-02T20:10:41.269Z,95870.94
2018-09-02T20:13:10.404Z,95869.34
2018-09-02T20:15:39.545Z,95871.47
2018-09-02T20:18:08.745Z,95867.71
2018-09-02T20:20:37.914Z,95867.43
2018-09-02T20:23:07.109Z,95870.12
2018-09-02T20:25:36.244Z,95874.69
2018-09-02T20:28:12.037Z,95875.50
2018-09-02T20:30:41.205Z,95883.02
2018-09-02T20:33:10.357Z,95881.38
2018-09-02T20:35:39.521Z,95883.29
2018-09-02T20:38:08.677Z,95881.41
2018-09-02T20:40:37.814Z,95876.03
2018-09-02T20:43:06.986Z,95881.41
2018-09-02T20:45:36.161Z,95883.82
2018-09-02T20:48:05.586Z,95876.00
2018-09-02T20:50:34.769Z,95874.69
2018-09-02T20:53:03.929Z,95872.52
2018-09-02T20:55:33.062Z,95879.50
2018-09-02T20:58:02.228Z,95879.22
2018-09-02T21:00:31.401Z,95872.81
2018-09-02T21:03:00.602Z,95880.06
2018-09-02T21:05:29.738Z,95879.53
2018-09-02T21:07:58.897Z,95886.52
2018-09-02T21:10:28.025Z,95881.95
2018-09-02T21:12:57.190Z,95887.86
2018-09-02T21:15:26.321Z,95883.04
2018-09-02T21:17:55.452Z,95882.48
2018-09-02T21:20:24.600Z,95876.28
2018-09-02T21:22:53.769Z,95875.22
2018-09-02T21:25:22.949Z,95869.30
2018-09-02T21:27:55.134Z,95868.73
2018-09-02T21:30:24.285Z,95871.71
2018-09-02T21:32:53.449Z,95864.45
2018-09-02T21:35:22.623Z,95863.35
2018-09-02T21:37:51.757Z,95871.46
2018-09-02T21:40:20.929Z,95871.19
2018-09-02T21:42:50.089Z,95872.24
2018-09-02T21:45:19.268Z,95868.24
2018-09-02T21:47:48.434Z,95867.67
2018-09-02T21:50:17.637Z,95867.42
2018-09-02T21:52:46.805Z,95862.83
2018-09-02T21:55:16.004Z,95865.52
2018-09-02T21:57:45.169Z,95860.66
2018-09-02T22:00:16.109Z,95854.99
2018-09-02T22:02:45.308Z,95850.38
2018-09-02T22:05:15.421Z,95844.45
2018-09-02T22:07:44.645Z,95839.90
2018-09-02T22:10:13.780Z,95844.79
2018-09-02T22:12:42.905Z,95844.52
2018-09-02T22:15:12.146Z,95845.08
2018-09-02T22:17:41.324Z,95838.36
2018-09-02T22:20:10.453Z,95828.94
2018-09-02T22:22:39.642Z,95818.17
2018-09-02T22:25:09.389Z,95795.59
2018-09-02T22:27:38.533Z,95791.79
2018-09-02T22:30:08.773Z,95779.92
2018-09-02T22:32:37.942Z,95770.80
2018-09-02T22:35:07.101Z,95766.23
2018-09-02T22:37:36.234Z,95759.26
2018-09-02T22:40:05.390Z,95746.09
2018-09-02T22:42:34.509Z,95730.21
2018-09-02T22:45:03.669Z,95724.83
2018-09-02T22:47:32.797Z,95728.86
2018-09-02T22:50:01.945Z,95725.35
2018-09-02T22:52:31.065Z,95725.63
2018-09-02T22:55:00.213Z,95729.13
2018-09-02T22:57:29.362Z,95726.16
2018-09-02T22:59:58.522Z,95724.00
2018-09-02T23:02:27.645Z,95728.31
2018-09-02T23:04:56.830Z,95736.39
2018-09-02T23:07:25.963Z,95730.44
2018-09-02T23:09:55.113Z,95734.22
2018-09-02T23:12:24.257Z,95744.42
2018-09-02T23:14:53.399Z,95754.12
2018-09-02T23:17:22.550Z,95760.86
2018-09-02T23:19:51.721Z,95759.02
2018-09-02T23:22:20.847Z,95764.41
2018-09-02T23:24:50.018Z,95759.81
2018-09-02T23:27:19.153Z,95758.47
2018-09-02T23:29:48.462Z,95762.23
2018-09-02T23:32:17.604Z,95759.58
2018-09-02T23:34:47.754Z,95769.28
2018-09-02T23:37:16.934Z,95771.97
2018-09-02T23:39:46.069Z,95777.87
2018-09-02T23:42:15.237Z,95786.52
2018-09-02T23:44:44.358Z,95801.05
2018-09-02T23:47:13.509Z,95807.50
2018-09-02T23:49:42.653Z,95812.34
2018-09-02T23:52:11.805Z,95815.31
2018-09-02T23:54:40.923Z,95814.50
2018-09-02T23:57:10.053Z,95815.31
2018-09-02T23:59:39.228Z,95809.37
